createdAt,value
2018-01-20T00:01:55.034Z,99518.41
2018-01-20T00:04:22.596Z,99522.41
2018-01-20T00:06:50.059Z,99523.42
2018-01-20T00:09:29.279Z,99523.55
2018-01-20T00:12:02.512Z,99525.17
2018-01-20T00:14:29.951Z,99527.69
2018-01-20T00:16:57.438Z,99517.30
2018-01-20T00:19:24.886Z,99519.83
2018-01-20T00:21:52.368Z,99524.56
2018-01-20T00:24:19.817Z,99519.52
2018-01-20T00:26:47.712Z,99516.98
2018-01-20T00:29:15.189Z,99512.13
2018-01-20T00:31:42.640Z,99513.17
2018-01-20T00:34:10.092Z,99507.52
2018-01-20T00:36:37.543Z,99509.31
2018-01-20T00:39:05.697Z,99502.48
2018-01-20T00:41:33.160Z,99513.78
2018-01-20T00:44:00.631Z,99505.34
2018-01-20T00:46:28.077Z,99502.19
2018-01-20T00:48:55.559Z,99503.34
2018-01-20T00:51:22.999Z,99494.55
2018-01-20T00:53:50.467Z,99496.54
2018-01-20T00:56:18.715Z,99500.64
2018-01-20T00:58:46.201Z,99493.89
2018-01-20T01:01:13.635Z,99490.62
2018-01-20T01:03:41.225Z,99505.73
2018-01-20T01:06:08.672Z,99496.66
2018-01-20T01:08:36.175Z,99493.42
2018-01-20T01:11:03.629Z,99489.48
2018-01-20T01:13:31.208Z,99492.84
2018-01-20T01:15:58.680Z,99499.90
2018-01-20T01:18:26.161Z,99492.28
2018-01-20T01:20:53.637Z,99491.89
2018-01-20T01:23:21.133Z,99494.77
2018-01-20T01:25:48.599Z,99494.98
2018-01-20T01:28:16.058Z,99504.05
2018-01-20T01:30:43.597Z,99494.41
2018-01-20T01:33:11.058Z,99500.45
2018-01-20T01:35:38.545Z,99494.62
2018-01-20T01:38:06.027Z,99506.02
2018-01-20T01:40:33.499Z,99500.75
2018-01-20T01:43:00.984Z,99505.77
2018-01-20T01:45:28.516Z,99490.27
2018-01-20T01:47:55.995Z,99500.09
2018-01-20T01:50:23.461Z,99486.13
2018-01-20T01:52:50.938Z,99488.14
2018-01-20T01:55:18.495Z,99484.82
2018-01-20T01:57:45.948Z,99487.03
2018-01-20T02:00:13.439Z,99487.95
2018-01-20T02:02:41.028Z,99487.38
2018-01-20T02:05:08.468Z,99490.08
2018-01-20T02:07:35.984Z,99487.36
2018-01-20T02:10:03.427Z,99483.73
2018-01-20T02:12:30.899Z,99479.64
2018-01-20T02:14:58.353Z,99471.76
2018-01-20T02:17:25.862Z,99474.50
2018-01-20T02:19:53.436Z,99473.41
2018-01-20T02:22:20.870Z,99478.82
2018-01-20T02:24:48.309Z,99485.06
2018-01-20T02:27:15.811Z,99486.17
2018-01-20T02:29:43.258Z,99479.70
2018-01-20T02:32:10.726Z,99482.78
2018-01-20T02:34:38.230Z,99480.45
2018-01-20T02:37:05.680Z,99485.52
2018-01-20T02:39:33.135Z,99476.67
2018-01-20T02:42:00.627Z,99481.59
2018-01-20T02:44:28.067Z,99479.17
2018-01-20T02:46:55.522Z,99479.75
2018-01-20T02:49:22.957Z,99471.78
2018-01-20T02:51:50.430Z,99475.09
2018-01-20T02:54:17.871Z,99468.14
2018-01-20T02:56:45.322Z,99464.34
2018-01-20T02:59:12.780Z,99470.59
2018-01-20T03:01:40.370Z,99471.00
2018-01-20T03:04:07.833Z,99471.08
2018-01-20T03:06:35.280Z,99462.28
2018-01-20T03:09:02.972Z,99465.00
2018-01-20T03:11:30.500Z,99465.45
2018-01-20T03:13:57.979Z,99475.30
2018-01-20T03:16:25.457Z,99475.87
2018-01-20T03:18:52.916Z,99468.00
2018-01-20T03:21:20.413Z,99468.53
2018-01-20T03:23:47.860Z,99466.15
2018-01-20T03:26:15.316Z,99465.18
2018-01-20T03:28:42.800Z,99456.12
2018-01-20T03:31:10.278Z,99459.47
2018-01-20T03:33:37.724Z,99460.56
2018-01-20T03:36:05.233Z,99466.91
2018-01-20T03:38:32.895Z,99465.80
2018-01-20T03:41:00.360Z,99460.47
2018-01-20T03:43:27.849Z,99467.34
2018-01-20T03:45:55.295Z,99461.36
2018-01-20T03:48:22.781Z,99465.36
2018-01-20T03:50:50.328Z,99460.69
2018-01-20T03:53:17.878Z,99466.55
2018-01-20T03:55:45.390Z,99469.63
2018-01-20T03:58:12.840Z,99466.53
2018-01-20T04:00:40.298Z,99468.30
2018-01-20T04:03:07.757Z,99468.60
2018-01-20T04:05:35.284Z,99461.91
2018-01-20T04:08:02.746Z,99467.23
2018-01-20T04:10:30.221Z,99468.63
2018-01-20T04:12:57.690Z,99464.23
2018-01-20T04:15:25.153Z,99464.50
2018-01-20T04:17:52.643Z,99466.39
2018-01-20T04:20:20.129Z,99468.60
2018-01-20T04:22:47.624Z,99461.64
2018-01-20T04:25:15.054Z,99458.65
2018-01-20T04:27:42.504Z,99458.48
2018-01-20T04:30:09.958Z,99462.10
2018-01-20T04:32:37.471Z,99462.00
2018-01-20T04:35:05.033Z,99455.23
2018-01-20T04:37:32.502Z,99459.98
2018-01-20T04:39:59.947Z,99458.35
2018-01-20T04:42:27.396Z,99458.30
2018-01-20T04:44:54.850Z,99451.79
2018-01-20T04:47:22.288Z,99451.75
2018-01-20T04:49:49.809Z,99443.06
2018-01-20T04:52:17.266Z,99443.47
2018-01-20T04:54:44.792Z,99446.59
2018-01-20T04:57:12.224Z,99439.80
2018-01-20T04:59:39.701Z,99443.61
2018-01-20T05:02:07.160Z,99443.95
2018-01-20T05:04:34.603Z,99436.55
2018-01-20T05:07:02.054Z,99438.85
2018-01-20T05:09:29.504Z,99432.76
2018-01-20T05:11:56.992Z,99430.69
2018-01-20T05:14:24.508Z,99430.31
2018-01-20T05:16:51.963Z,99422.45
2018-01-20T05:19:19.406Z,99416.70
2018-01-20T05:21:46.962Z,99412.73
2018-01-20T05:24:14.397Z,99411.14
2018-01-20T05:26:41.918Z,99419.03
2018-01-20T05:29:09.363Z,99417.28
2018-01-20T05:31:36.860Z,99416.92
2018-01-20T05:34:04.319Z,99419.73
2018-01-20T05:36:31.778Z,99421.52
2018-01-20T05:38:59.234Z,99420.38
2018-01-20T05:41:26.698Z,99415.59
2018-01-20T05:43:54.219Z,99416.03
2018-01-20T05:46:21.681Z,99420.00
2018-01-20T05:48:50.228Z,99416.19
2018-01-20T05:51:17.740Z,99417.98
2018-01-20T05:53:45.200Z,99410.69
2018-01-20T05:56:12.658Z,99412.44
2018-01-20T05:58:40.115Z,99414.80
2018-01-20T06:01:07.630Z,99410.73
2018-01-20T06:03:35.088Z,99406.05
2018-01-20T06:06:02.579Z,99405.77
2018-01-20T06:08:30.146Z,99404.80
2018-01-20T06:10:57.700Z,99403.58
2018-01-20T06:13:25.141Z,99405.92
2018-01-20T06:15:52.599Z,99407.31
2018-01-20T06:18:20.040Z,99403.94
2018-01-20T06:20:47.591Z,99407.73
2018-01-20T06:23:15.064Z,99405.13
2018-01-20T06:25:42.688Z,99404.78
2018-01-20T06:28:10.137Z,99410.56
2018-01-20T06:30:37.733Z,99404.61
2018-01-20T06:33:05.266Z,99408.42
2018-01-20T06:35:32.732Z,99402.99
2018-01-20T06:38:00.185Z,99401.36
2018-01-20T06:40:27.664Z,99398.60
2018-01-20T06:42:56.217Z,99397.34
2018-01-20T06:45:23.717Z,99396.23
2018-01-20T06:47:51.251Z,99402.71
2018-01-20T06:50:18.747Z,99402.62
2018-01-20T06:52:46.205Z,99397.48
2018-01-20T06:55:13.654Z,99396.03
2018-01-20T06:57:41.404Z,99399.55
2018-01-20T07:00:08.844Z,99398.09
2018-01-20T07:02:36.304Z,99402.55
2018-01-20T07:05:04.852Z,99397.63
2018-01-20T07:07:32.291Z,99403.21
2018-01-20T07:09:59.759Z,99400.70
2018-01-20T07:12:27.234Z,99396.61
2018-01-20T07:14:54.768Z,99405.52
2018-01-20T07:17:22.236Z,99398.34
2018-01-20T07:19:49.687Z,99401.41
2018-01-20T07:22:17.329Z,99405.72
2018-01-20T07:24:44.779Z,99403.86
2018-01-20T07:27:12.209Z,99406.63
2018-01-20T07:29:40.108Z,99403.05
2018-01-20T07:32:08.095Z,99406.10
2018-01-20T07:34:35.561Z,99408.33
2018-01-20T07:37:03.078Z,99406.86
2018-01-20T07:39:30.536Z,99414.22
2018-01-20T07:41:58.030Z,99410.39
2018-01-20T07:44:25.512Z,99409.41
2018-01-20T07:46:53.087Z,99413.94
2018-01-20T07:49:20.636Z,99407.69
2018-01-20T07:51:48.120Z,99408.88
2018-01-20T07:54:15.592Z,99405.70
2018-01-20T07:56:43.307Z,99414.40
2018-01-20T07:59:10.742Z,99408.95
2018-01-20T08:01:38.229Z,99416.95
2018-01-20T08:04:05.696Z,99416.98
2018-01-20T08:06:33.249Z,99411.36
2018-01-20T08:09:00.806Z,99404.20
2018-01-20T08:11:28.257Z,99410.15
2018-01-20T08:13:55.844Z,99410.28
2018-01-20T08:16:23.327Z,99408.16
2018-01-20T08:18:50.784Z,99407.80
2018-01-20T08:21:18.292Z,99402.39
2018-01-20T08:23:45.844Z,99396.20
2018-01-20T08:26:13.307Z,99401.66
2018-01-20T08:28:40.784Z,99399.54
2018-01-20T08:31:08.252Z,99398.74
2018-01-20T08:33:35.730Z,99397.44
2018-01-20T08:36:03.180Z,99400.44
2018-01-20T08:38:30.625Z,99403.69
2018-01-20T08:40:58.154Z,99400.55
2018-01-20T08:43:25.607Z,99396.69
2018-01-20T08:45:53.132Z,99405.84
2018-01-20T08:48:20.576Z,99402.34
2018-01-20T08:50:48.061Z,99407.61
2018-01-20T08:53:15.501Z,99403.41
2018-01-20T08:55:43.288Z,99402.14
2018-01-20T08:58:10.718Z,99406.36
2018-01-20T09:00:38.201Z,99399.36
2018-01-20T09:03:05.665Z,99396.16
2018-01-20T09:05:33.105Z,99399.66
2018-01-20T09:08:00.630Z,99395.48
2018-01-20T09:10:28.068Z,99392.56
2018-01-20T09:12:55.528Z,99393.98
2018-01-20T09:15:23.033Z,99383.76
2018-01-20T09:17:50.543Z,99390.94
2018-01-20T09:20:17.987Z,99398.47
2018-01-20T09:22:45.461Z,99392.84
2018-01-20T09:25:13.024Z,99390.98
2018-01-20T09:27:40.492Z,99393.39
2018-01-20T09:30:07.924Z,99392.03
2018-01-20T09:32:35.377Z,99388.19
2018-01-20T09:35:02.846Z,99390.05
2018-01-20T09:37:30.363Z,99392.42
2018-01-20T09:39:57.836Z,99383.23
2018-01-20T09:42:25.272Z,99380.83
2018-01-20T09:44:52.763Z,99386.64
2018-01-20T09:47:20.257Z,99384.28
2018-01-20T09:49:47.732Z,99391.70
2018-01-20T09:52:15.187Z,99374.14
2018-01-20T09:54:42.661Z,99387.27
2018-01-20T09:57:10.421Z,99383.40
2018-01-20T09:59:37.899Z,99369.55
2018-01-20T10:02:05.393Z,99371.97
2018-01-20T10:04:33.373Z,99376.19
2018-01-20T10:07:00.818Z,99367.97
2018-01-20T10:09:28.330Z,99368.66
2018-01-20T10:11:55.801Z,99359.98
2018-01-20T10:14:23.339Z,99363.70
2018-01-20T10:16:50.809Z,99360.78
2018-01-20T10:19:18.265Z,99357.34
2018-01-20T10:21:45.716Z,99356.55
2018-01-20T10:24:13.433Z,99348.69
2018-01-20T10:26:40.905Z,99349.50
2018-01-20T10:29:08.374Z,99348.17
2018-01-20T10:31:35.828Z,99341.25
2018-01-20T10:34:03.320Z,99343.89
2018-01-20T10:36:30.740Z,99330.86
2018-01-20T10:38:58.194Z,99332.99
2018-01-20T10:41:25.731Z,99325.27
2018-01-20T10:43:53.203Z,99327.78
2018-01-20T10:46:20.679Z,99324.05
2018-01-20T10:48:48.164Z,99323.26
2018-01-20T10:51:15.675Z,99323.27
2018-01-20T10:53:43.202Z,99319.50
2018-01-20T10:56:10.636Z,99314.88
2018-01-20T10:58:38.099Z,99326.39
2018-01-20T11:01:05.531Z,99311.23
2018-01-20T11:03:33.022Z,99311.62
2018-01-20T11:06:00.463Z,99308.48
2018-01-20T11:08:27.924Z,99306.67
2018-01-20T11:10:55.385Z,99294.47
2018-01-20T11:13:22.866Z,99294.99
2018-01-20T11:15:50.346Z,99291.66
2018-01-20T11:18:17.880Z,99288.89
2018-01-20T11:20:45.328Z,99279.41
2018-01-20T11:23:12.869Z,99283.42
2018-01-20T11:25:40.418Z,99263.45
2018-01-20T11:28:07.874Z,99260.11
2018-01-20T11:30:35.334Z,99266.02
2018-01-20T11:33:02.802Z,99249.83
2018-01-20T11:35:30.258Z,99248.89
2018-01-20T11:37:57.701Z,99242.27
2018-01-20T11:40:25.355Z,99233.45
2018-01-20T11:42:52.811Z,99226.13
2018-01-20T11:45:20.275Z,99232.44
2018-01-20T11:47:47.729Z,99226.17
2018-01-20T11:50:15.232Z,99223.49
2018-01-20T11:52:42.689Z,99216.68
2018-01-20T11:55:10.155Z,99217.73
2018-01-20T11:57:37.632Z,99219.36
2018-01-20T12:00:05.114Z,99212.00
2018-01-20T12:02:32.553Z,99210.62
2018-01-20T12:05:00.025Z,99201.77
2018-01-20T12:07:27.504Z,99204.31
2018-01-20T12:09:54.973Z,99209.42
2018-01-20T12:12:22.446Z,99200.21
2018-01-20T12:14:49.895Z,99196.01
2018-01-20T12:17:17.349Z,99195.06
2018-01-20T12:19:44.798Z,99192.02
2018-01-20T12:22:12.376Z,99198.60
2018-01-20T12:24:39.829Z,99190.73
2018-01-20T12:27:07.265Z,99182.47
2018-01-20T12:29:34.717Z,99188.77
2018-01-20T12:32:02.155Z,99182.44
2018-01-20T12:34:29.604Z,99180.70
2018-01-20T12:36:57.053Z,99180.22
2018-01-20T12:39:24.507Z,99180.71
2018-01-20T12:41:51.975Z,99181.44
2018-01-20T12:44:19.539Z,99168.06
2018-01-20T12:46:53.484Z,99173.66
2018-01-20T12:49:20.952Z,99168.61
2018-01-20T12:51:48.411Z,99163.51
2018-01-20T12:54:15.861Z,99159.31
2018-01-20T12:56:43.405Z,99156.66
2018-01-20T12:59:10.880Z,99155.33
2018-01-20T13:01:38.330Z,99150.17
2018-01-20T13:04:05.768Z,99143.53
2018-01-20T13:06:33.340Z,99148.45
2018-01-20T13:09:00.787Z,99142.87
2018-01-20T13:11:28.246Z,99136.50
2018-01-20T13:13:55.737Z,99137.98
2018-01-20T13:16:23.265Z,99143.02
2018-01-20T13:18:50.966Z,99150.09
2018-01-20T13:21:18.444Z,99143.18
2018-01-20T13:23:45.928Z,99137.19
2018-01-20T13:26:13.413Z,99135.31
2018-01-20T13:28:40.853Z,99137.05
2018-01-20T13:31:08.336Z,99131.33
2018-01-20T13:33:35.792Z,99129.05
2018-01-20T13:36:03.238Z,99128.80
2018-01-20T13:38:30.771Z,99123.95
2018-01-20T13:40:58.600Z,99121.70
2018-01-20T13:43:26.235Z,99121.94
2018-01-20T13:45:54.403Z,99114.32
2018-01-20T13:48:22.032Z,99116.50
2018-01-20T13:50:49.565Z,99115.90
2018-01-20T13:53:17.080Z,99107.88
2018-01-20T13:55:44.631Z,99111.87
2018-01-20T13:58:12.200Z,99109.42
2018-01-20T14:00:39.757Z,99102.52
2018-01-20T14:03:07.264Z,99105.73
2018-01-20T14:05:34.749Z,99104.08
2018-01-20T14:08:02.340Z,99098.84
2018-01-20T14:10:29.797Z,99102.14
2018-01-20T14:12:57.244Z,99100.89
2018-01-20T14:15:24.713Z,99093.73
2018-01-20T14:17:52.156Z,99094.44
2018-01-20T14:20:19.757Z,99091.38
2018-01-20T14:22:47.218Z,99096.42
2018-01-20T14:25:14.668Z,99090.59
2018-01-20T14:27:42.182Z,99082.62
2018-01-20T14:30:09.647Z,99083.28
2018-01-20T14:32:37.105Z,99087.42
2018-01-20T14:35:04.571Z,99088.74
2018-01-20T14:37:32.116Z,99088.37
2018-01-20T14:39:59.637Z,99080.41
2018-01-20T14:42:27.191Z,99086.09
2018-01-20T14:44:54.788Z,99080.91
2018-01-20T14:47:22.245Z,99081.72
2018-01-20T14:49:49.754Z,99078.67
2018-01-20T14:52:18.063Z,99076.42
2018-01-20T14:54:45.517Z,99074.04
2018-01-20T14:57:12.989Z,99070.57
2018-01-20T14:59:40.451Z,99071.36
2018-01-20T15:02:07.928Z,99066.99
2018-01-20T15:04:35.391Z,99065.13
2018-01-20T15:07:02.918Z,99059.02
2018-01-20T15:09:30.384Z,99065.13
2018-01-20T15:11:57.838Z,99062.22
2018-01-20T15:14:25.309Z,99053.08
2018-01-20T15:16:52.783Z,99048.02
2018-01-20T15:19:20.254Z,99041.67
2018-01-20T15:21:47.763Z,99036.48
2018-01-20T15:24:15.303Z,99034.37
2018-01-20T15:26:42.783Z,99036.20
2018-01-20T15:29:10.254Z,99037.28
2018-01-20T15:31:37.701Z,99033.42
2018-01-20T15:34:05.161Z,99034.50
2018-01-20T15:36:32.601Z,99031.42
2018-01-20T15:39:00.137Z,99032.24
2018-01-20T15:41:27.625Z,99026.80
2018-01-20T15:43:55.188Z,99028.23
2018-01-20T15:46:22.839Z,99019.35
2018-01-20T15:48:50.329Z,99014.05
2018-01-20T15:51:17.771Z,99008.34
2018-01-20T15:53:45.259Z,99001.03
2018-01-20T15:56:12.737Z,98996.61
2018-01-20T15:58:40.215Z,98993.52
2018-01-20T16:01:07.682Z,98991.47
2018-01-20T16:03:35.140Z,98982.17
2018-01-20T16:06:02.589Z,98985.16
2018-01-20T16:08:30.060Z,98981.27
2018-01-20T16:10:57.599Z,98977.23
2018-01-20T16:13:25.050Z,98971.72
2018-01-20T16:15:52.613Z,98970.20
2018-01-20T16:18:20.119Z,98969.76
2018-01-20T16:20:47.566Z,98967.05
2018-01-20T16:23:15.016Z,98966.72
2018-01-20T16:25:42.582Z,98965.78
2018-01-20T16:28:10.125Z,98964.94
2018-01-20T16:30:37.791Z,98966.95
2018-01-20T16:33:05.325Z,98968.52
2018-01-20T16:35:32.836Z,98957.01
2018-01-20T16:38:00.305Z,98959.89
2018-01-20T16:40:27.851Z,98961.16
2018-01-20T16:42:55.352Z,98963.07
2018-01-20T16:45:22.821Z,98957.70
2018-01-20T16:47:50.298Z,98961.65
2018-01-20T16:50:17.739Z,98960.23
2018-01-20T16:52:45.231Z,98956.94
2018-01-20T16:55:12.681Z,98945.84
2018-01-20T16:57:40.146Z,98945.09
2018-01-20T17:00:07.596Z,98940.66
2018-01-20T17:02:35.044Z,98947.09
2018-01-20T17:05:02.599Z,98942.17
2018-01-20T17:07:30.124Z,98938.22
2018-01-20T17:09:57.579Z,98937.62
2018-01-20T17:12:25.041Z,98934.50
2018-01-20T17:14:52.539Z,98939.11
2018-01-20T17:17:20.029Z,98926.87
2018-01-20T17:19:47.604Z,98929.91
2018-01-20T17:22:15.082Z,98923.11
2018-01-20T17:24:42.536Z,98920.42
2018-01-20T17:27:10.060Z,98916.06
2018-01-20T17:29:37.528Z,98910.63
2018-01-20T17:32:04.992Z,98909.77
2018-01-20T17:34:32.452Z,98907.88
2018-01-20T17:36:59.950Z,98903.26
2018-01-20T17:39:27.398Z,98900.80
2018-01-20T17:41:54.864Z,98898.13
2018-01-20T17:44:22.333Z,98890.33
2018-01-20T17:46:49.799Z,98889.68
2018-01-20T17:49:17.319Z,98883.05
2018-01-20T17:51:44.801Z,98878.73
2018-01-20T17:54:12.257Z,98878.22
2018-01-20T17:56:39.717Z,98865.81
2018-01-20T17:59:07.173Z,98871.50
2018-01-20T18:01:34.638Z,98862.52
2018-01-20T18:04:02.156Z,98862.77
2018-01-20T18:06:29.638Z,98856.98
2018-01-20T18:08:57.169Z,98860.92
2018-01-20T18:11:24.611Z,98859.98
2018-01-20T18:13:52.126Z,98858.33
2018-01-20T18:16:19.679Z,98853.62
2018-01-20T18:18:47.156Z,98853.14
2018-01-20T18:21:14.665Z,98852.90
2018-01-20T18:23:42.141Z,98852.90
2018-01-20T18:26:09.627Z,98852.04
2018-01-20T18:28:37.093Z,98848.34
2018-01-20T18:31:04.569Z,98848.30
2018-01-20T18:33:32.100Z,98850.66
2018-01-20T18:35:59.625Z,98847.27
2018-01-20T18:38:27.160Z,98845.86
2018-01-20T18:40:54.664Z,98839.11
2018-01-20T18:43:22.172Z,98840.52
2018-01-20T18:45:49.647Z,98832.59
2018-01-20T18:48:17.127Z,98825.54
2018-01-20T18:50:44.595Z,98826.42
2018-01-20T18:53:12.045Z,98825.97
2018-01-20T18:55:39.519Z,98820.98
2018-01-20T18:58:06.972Z,98819.55
2018-01-20T19:00:34.490Z,98812.14
2018-01-20T19:03:01.997Z,98805.28
2018-01-20T19:05:29.450Z,98812.63
2018-01-20T19:07:56.981Z,98803.77
2018-01-20T19:10:24.465Z,98810.61
2018-01-20T19:12:51.949Z,98803.66
2018-01-20T19:15:19.425Z,98807.28
2018-01-20T19:17:46.885Z,98806.08
2018-01-20T19:20:14.415Z,98807.01
2018-01-20T19:22:41.957Z,98803.32
2018-01-20T19:25:09.443Z,98799.09
2018-01-20T19:27:36.910Z,98801.29
2018-01-20T19:30:04.372Z,98803.53
2018-01-20T19:32:31.865Z,98801.31
2018-01-20T19:34:59.315Z,98797.42
2018-01-20T19:37:26.843Z,98795.30
2018-01-20T19:39:54.330Z,98790.66
2018-01-20T19:42:22.176Z,98790.28
2018-01-20T19:44:49.720Z,98786.28
2018-01-20T19:47:17.272Z,98784.97
2018-01-20T19:49:44.894Z,98791.64
2018-01-20T19:52:12.418Z,98782.63
2018-01-20T19:54:39.956Z,98781.54
2018-01-20T19:57:07.407Z,98788.48
2018-01-20T19:59:34.866Z,98788.06
2018-01-20T20:02:02.320Z,98789.95
2018-01-20T20:04:30.592Z,98789.52
2018-01-20T20:06:58.107Z,98791.31
2018-01-20T20:09:25.641Z,98788.38
2018-01-20T20:11:53.120Z,98785.45
2018-01-20T20:14:20.666Z,98779.09
2018-01-20T20:16:48.104Z,98781.19
2018-01-20T20:19:15.590Z,98790.83
2018-01-20T20:21:43.108Z,98779.88
2018-01-20T20:24:10.602Z,98781.16
2018-01-20T20:26:38.070Z,98774.87
2018-01-20T20:29:05.529Z,98777.94
2018-01-20T20:31:33.047Z,98775.56
2018-01-20T20:34:00.499Z,98787.14
2018-01-20T20:36:27.984Z,98789.93
2018-01-20T20:38:55.495Z,98792.39
2018-01-20T20:41:23.059Z,98802.06
2018-01-20T20:43:50.540Z,98798.34
2018-01-20T20:46:18.022Z,98794.47
2018-01-20T20:48:45.684Z,98797.95
2018-01-20T20:51:13.197Z,98795.89
2018-01-20T20:53:40.754Z,98802.47
2018-01-20T20:56:08.206Z,98793.75
2018-01-20T20:58:35.724Z,98791.55
2018-01-20T21:01:03.182Z,98789.67
2018-01-20T21:03:30.721Z,98780.72
2018-01-20T21:05:58.238Z,98784.92
2018-01-20T21:08:25.767Z,98785.33
2018-01-20T21:10:53.312Z,98780.09
2018-01-20T21:13:20.777Z,98777.42
2018-01-20T21:15:48.314Z,98777.39
2018-01-20T21:18:15.860Z,98778.11
2018-01-20T21:20:43.380Z,98781.80
2018-01-20T21:23:10.890Z,98776.56
2018-01-20T21:25:38.396Z,98773.94
2018-01-20T21:28:05.862Z,98770.02
2018-01-20T21:30:33.387Z,98773.37
2018-01-20T21:33:00.904Z,98776.44
2018-01-20T21:35:28.434Z,98771.33
2018-01-20T21:37:55.922Z,98769.81
2018-01-20T21:40:23.408Z,98775.51
2018-01-20T21:42:50.936Z,98769.39
2018-01-20T21:45:18.465Z,98777.22
2018-01-20T21:47:45.977Z,98767.61
2018-01-20T21:50:13.444Z,98764.16
2018-01-20T21:52:40.906Z,98760.43
2018-01-20T21:55:08.545Z,98760.66
2018-01-20T21:57:36.063Z,98759.61
2018-01-20T22:00:03.559Z,98760.83
2018-01-20T22:02:31.049Z,98760.80
2018-01-20T22:04:58.578Z,98758.03
2018-01-20T22:07:26.091Z,98762.02
2018-01-20T22:09:53.617Z,98762.97
2018-01-20T22:12:21.095Z,98759.05
2018-01-20T22:14:48.586Z,98764.02
2018-01-20T22:17:16.111Z,98762.23
2018-01-20T22:19:43.644Z,98767.89
2018-01-20T22:22:11.168Z,98768.02
2018-01-20T22:24:38.647Z,98759.75
2018-01-20T22:27:06.112Z,98767.75
2018-01-20T22:29:33.613Z,98761.84
2018-01-20T22:32:01.076Z,98754.84
2018-01-20T22:34:28.520Z,98749.10
2018-01-20T22:36:56.010Z,98747.00
2018-01-20T22:39:23.521Z,98749.42
2018-01-20T22:41:50.975Z,98757.06
2018-01-20T22:44:18.425Z,98756.11
2018-01-20T22:46:54.608Z,98758.09
2018-01-20T22:49:22.108Z,98757.51
2018-01-20T22:51:49.573Z,98768.31
2018-01-20T22:54:17.035Z,98762.91
2018-01-20T22:56:44.472Z,98763.83
2018-01-20T22:59:12.025Z,98754.73
2018-01-20T23:01:39.554Z,98755.16
2018-01-20T23:04:07.050Z,98754.98
2018-01-20T23:06:34.508Z,98753.95
2018-01-20T23:09:02.027Z,98755.31
2018-01-20T23:11:29.509Z,98767.83
2018-01-20T23:13:56.976Z,98761.64
2018-01-20T23:16:24.423Z,98763.33
2018-01-20T23:18:51.894Z,98761.09
2018-01-20T23:21:19.443Z,98762.48
2018-01-20T23:23:46.884Z,98765.97
2018-01-20T23:26:14.348Z,98763.52
2018-01-20T23:28:41.866Z,98767.73
2018-01-20T23:31:09.333Z,98763.22
2018-01-20T23:33:36.823Z,98761.45
2018-01-20T23:36:04.365Z,98756.05
2018-01-20T23:38:31.846Z,98756.21
2018-01-20T23:40:59.308Z,98760.16
2018-01-20T23:43:26.765Z,98763.62
2018-01-20T23:45:54.234Z,98766.07
2018-01-20T23:48:21.697Z,98763.04
2018-01-20T23:50:49.167Z,98753.98
2018-01-20T23:53:16.673Z,98754.92
2018-01-20T23:55:44.100Z,98758.27
2018-01-20T23:58:11.632Z,98759.30
